Diamond City, Arkansas
Current Conditions -  °F | °C
As of 11:47 AM on Thursday 29 Jan 2015 (Local Time) from KBBG Reporting Station
Overcast Overcast  
Wind Chill: 32°   Ceiling: 1600
Heat Index: 41°   Visibility: 10mi
Dew Point: 34°   Wind: 17mph
Humidity: 76%   Direction: 310°NW
Pressure: 30.29"   Gusts: 29mph
Location:  36.46°N, 92.92°W
Report Text: KBBG 291747Z 31015G25KT 10SM OVC016 05/01 A3029
Loading
Personal Weather Stations






























Interactive Weather Map New forecast layout! Learn more

10-Day Weather Forecast

Advertisements
Track Severe Weather on mobile